Time;durP1;ratioP1;P1;durP2;ratioP2;P2;SDS_P1;SDS_P2;PMS_P1;PMS_P2;Temp;Humidity;BMP_temperature;BMP_pressure;BME280_temperature;BME280_humidity;BME280_pressure;Samples;Min_cycle;Max_cycle;Signal;HPM_P1;HPM_P2
2022/05/10 00:00:22;;;;;;;6.88;6.07;;;;;;;23.44;34.08;101645.16;5072054;28;20052;-75
2022/05/10 00:02:53;;;;;;;7.07;6.15;;;;;;;23.45;34.77;101646.03;5054818;28;20106;-74
2022/05/10 00:05:26;;;;;;;7.60;6.05;;;;;;;23.43;34.32;101643.41;5059103;28;20076;-75
2022/05/10 00:07:53;;;;;;;7.82;6.20;;;;;;;23.37;34.60;101646.88;5053372;28;20052;-76
2022/05/10 00:10:20;;;;;;;7.63;6.00;;;;;;;23.35;34.32;101646.16;5055406;28;20094;-73
2022/05/10 00:12:47;;;;;;;6.80;5.88;;;;;;;23.32;34.22;101648.38;5086261;28;20097;-75
2022/05/10 00:15:14;;;;;;;7.53;5.97;;;;;;;23.29;34.71;101638.50;5054864;28;20036;-75
2022/05/10 00:17:42;;;;;;;7.72;6.15;;;;;;;23.29;34.30;101638.50;5063778;28;20082;-76
2022/05/10 00:20:14;;;;;;;7.82;6.13;;;;;;;23.28;34.94;101639.53;5064997;28;20569;-76
2022/05/10 00:22:41;;;;;;;7.05;6.35;;;;;;;23.21;34.50;101641.25;5059127;28;20052;-75
2022/05/10 00:25:10;;;;;;;7.65;5.55;;;;;;;23.23;34.59;101639.16;5055597;28;20067;-76
2022/05/10 00:27:37;;;;;;;7.05;6.13;;;;;;;23.20;34.81;101633.09;5056083;28;20417;-75
2022/05/10 00:30:05;;;;;;;6.65;5.95;;;;;;;23.19;34.32;101625.81;5052081;28;20501;-76
2022/05/10 00:32:35;;;;;;;6.35;5.72;;;;;;;23.17;34.70;101628.75;5047891;28;20049;-75
2022/05/10 00:35:05;;;;;;;7.20;6.20;;;;;;;23.14;34.78;101629.94;5086183;28;20536;-75
2022/05/10 00:37:32;;;;;;;8.02;6.05;;;;;;;23.10;34.25;101628.53;5052359;28;20103;-76
2022/05/10 00:39:59;;;;;;;8.13;6.18;;;;;;;23.08;34.52;101625.06;5056116;28;20098;-75
2022/05/10 00:42:35;;;;;;;7.85;6.10;;;;;;;23.09;35.29;101624.03;5055987;28;20047;-75
2022/05/10 00:45:15;;;;;;;7.32;6.20;;;;;;;23.05;34.95;101622.63;5054812;28;20045;-76
2022/05/10 00:47:59;;;;;;;6.85;5.93;;;;;;;23.03;35.16;101621.06;5055509;28;20045;-76
2022/05/10 00:50:35;;;;;;;6.68;5.53;;;;;;;23.00;35.24;101629.69;5063007;28;20072;-76
2022/05/10 00:53:22;;;;;;;6.80;5.68;;;;;;;22.94;35.31;101627.56;5087182;28;20056;-76
2022/05/10 00:56:14;;;;;;;7.70;6.22;;;;;;;22.91;34.99;101628.75;5064068;28;20497;-75
2022/05/10 00:59:10;;;;;;;6.07;5.33;;;;;;;22.85;34.61;101626.66;5065118;28;20052;-75
2022/05/10 01:01:40;;;;;;;8.02;5.45;;;;;;;22.86;34.97;101625.63;5035144;28;20101;-74
2022/05/10 01:04:23;;;;;;;7.80;5.97;;;;;;;22.86;35.37;101614.56;5073555;28;20048;-76
2022/05/10 01:07:02;;;;;;;8.00;6.28;;;;;;;22.84;35.08;101621.28;5064534;28;20040;-76
2022/05/10 01:09:41;;;;;;;6.22;5.55;;;;;;;22.81;35.49;101618.84;5058609;28;20487;-76
2022/05/10 01:12:18;;;;;;;7.18;5.75;;;;;;;22.79;35.29;101615.38;5053361;28;20044;-75
2022/05/10 01:14:57;;;;;;;6.30;5.53;;;;;;;22.77;35.16;101615.53;5055031;28;20106;-76
2022/05/10 01:17:24;;;;;;;7.40;5.78;;;;;;;22.71;34.99;101607.84;5052182;28;20052;-76
2022/05/10 01:19:51;;;;;;;6.95;5.57;;;;;;;22.69;34.89;101612.69;5054978;28;20131;-76
2022/05/10 01:22:50;;;;;;;6.32;5.50;;;;;;;22.67;35.08;101604.53;5063418;28;20082;-75
2022/05/10 01:26:09;;;;;;;6.10;5.25;;;;;;;22.56;35.24;101613.13;5055296;28;20559;-76
2022/05/10 01:28:48;;;;;;;6.63;5.45;;;;;;;22.62;35.58;101606.06;4992317;28;20097;-76
2022/05/10 01:31:30;;;;;;;7.55;5.47;;;;;;;22.61;35.44;101612.63;4993253;28;20092;-75
2022/05/10 01:34:05;;;;;;;6.07;5.38;;;;;;;22.56;35.11;101613.13;4973158;28;20057;-75
2022/05/10 01:36:46;;;;;;;5.75;5.07;;;;;;;22.57;35.60;101617.59;4992841;28;20050;-76
2022/05/10 01:39:20;;;;;;;7.68;5.30;;;;;;;22.55;35.53;101605.84;4990333;28;20093;-76
2022/05/10 01:42:14;;;;;;;6.97;5.75;;;;;;;22.55;35.83;101604.97;4976603;28;20092;-74
2022/05/10 01:44:56;;;;;;;6.47;5.00;;;;;;;22.53;35.74;101605.13;5009579;28;20054;-75
2022/05/10 01:47:47;;;;;;;6.93;5.57;;;;;;;22.47;35.58;101600.25;4982627;28;20049;-76
2022/05/10 01:50:17;;;;;;;6.25;5.45;;;;;;;22.49;35.28;101603.69;5009883;28;20057;-76
2022/05/10 01:52:44;;;;;;;7.25;5.78;;;;;;;22.45;35.35;101593.13;4991765;28;20050;-75
2022/05/10 01:55:39;;;;;;;6.80;5.63;;;;;;;22.42;35.93;101598.97;4993374;28;20042;-76
2022/05/10 01:58:12;;;;;;;6.50;5.70;;;;;;;22.45;36.07;101595.91;4967347;28;20491;-76
2022/05/10 02:00:43;;;;;;;6.63;5.40;;;;;;;22.43;35.74;101600.72;5058683;28;20052;-75
2022/05/10 02:03:22;;;;;;;6.70;5.88;;;;;;;22.43;35.85;101598.81;5067604;28;20097;-75
2022/05/10 02:06:02;;;;;;;7.13;5.30;;;;;;;22.40;35.48;101593.63;5054571;28;20056;-75
2022/05/10 02:08:55;;;;;;;7.22;5.75;;;;;;;22.33;35.87;101589.75;5053032;28;20041;-75
2022/05/10 02:11:22;;;;;;;6.43;5.15;;;;;;;22.31;35.90;101589.06;5052836;28;20044;-74
2022/05/10 02:14:04;;;;;;;6.90;5.70;;;;;;;22.35;35.66;101588.56;5058985;28;20055;-75
2022/05/10 02:16:54;;;;;;;6.30;5.43;;;;;;;22.31;35.58;101589.94;5039843;28;20102;-75
2022/05/10 02:19:27;;;;;;;6.32;5.47;;;;;;;22.31;35.76;101592.69;5059894;28;20109;-75
2022/05/10 02:21:55;;;;;;;;;;;;;;;22.00;36.15;101588.59;5056589;28;20376;-74
2022/05/10 02:24:27;;;;;;;6.45;5.53;;;;;;;22.22;35.86;101585.34;5053424;28;19924;-75
2022/05/10 02:27:10;;;;;;;6.72;5.80;;;;;;;22.23;35.73;101586.22;5041764;28;20658;-75
2022/05/10 02:29:48;;;;;;;7.63;5.97;;;;;;;22.20;35.70;101583.78;5082954;28;20044;-75
2022/05/10 02:35:07;;;;;;;6.50;5.55;;;;;;;22.08;36.03;101585.91;5070540;28;20478;-75
2022/05/10 02:37:35;;;;;;;7.10;5.85;;;;;;;22.03;35.88;101580.00;5059421;28;20049;-77
2022/05/10 02:40:03;;;;;;;6.55;4.97;;;;;;;22.00;36.02;101580.28;5057732;28;20098;-74
2022/05/10 02:42:32;;;;;;;7.82;6.10;;;;;;;21.97;36.21;101580.63;5062021;28;20516;-74
2022/05/10 02:44:59;;;;;;;7.13;5.90;;;;;;;21.94;36.33;101572.63;5064449;28;20049;-75
2022/05/10 02:47:39;;;;;;;6.72;5.88;;;;;;;21.93;36.68;101568.97;5058137;28;20069;-75
2022/05/10 02:50:15;;;;;;;7.15;5.80;;;;;;;21.92;36.35;101569.13;5053248;28;20102;-75
2022/05/10 02:52:42;;;;;;;6.63;5.60;;;;;;;21.87;35.92;101563.22;5053669;28;20094;-75
2022/05/10 02:55:36;;;;;;;7.13;5.57;;;;;;;21.89;36.18;101569.47;5084631;28;20102;-75
2022/05/10 02:58:14;;;;;;;6.75;5.55;;;;;;;21.87;36.81;101560.44;5056030;28;20482;-73
2022/05/10 03:00:45;;;;;;;7.32;5.75;;;;;;;21.87;36.51;101557.69;5061817;28;20071;-74
2022/05/10 03:03:18;;;;;;;6.55;5.63;;;;;;;21.88;36.24;101553.91;5064544;28;20509;-75
2022/05/10 03:05:44;;;;;;;6.05;4.93;;;;;;;21.83;36.50;101554.34;5064756;28;21295;-75
2022/05/10 03:08:11;;;;;;;7.30;5.72;;;;;;;21.84;36.47;101549.69;5087033;28;20044;-75
2022/05/10 03:10:38;;;;;;;6.70;5.72;;;;;;;21.83;36.14;101548.84;5052143;28;20102;-74
2022/05/10 03:13:05;;;;;;;6.50;5.72;;;;;;;21.83;36.44;101548.84;5056060;28;20122;-74
2022/05/10 03:15:31;;;;;;;6.18;5.30;;;;;;;21.83;35.95;101545.19;5058810;28;20041;-74
2022/05/10 03:17:58;;;;;;;7.43;5.70;;;;;;;21.82;36.35;101541.59;5056855;28;20553;-74
2022/05/10 03:20:25;;;;;;;7.13;5.32;;;;;;;21.81;36.27;101541.75;5054380;28;20070;-74
2022/05/10 03:22:51;;;;;;;6.38;5.35;;;;;;;21.79;35.94;101536.38;5057107;28;20044;-75
2022/05/10 03:25:18;;;;;;;6.10;5.50;;;;;;;21.78;36.06;101531.00;5057914;28;20063;-73
2022/05/10 03:27:45;;;;;;;5.88;5.10;;;;;;;21.75;35.94;101531.31;5057777;28;20486;-75
2022/05/10 03:30:12;;;;;;;7.20;5.28;;;;;;;21.72;35.89;101538.03;5055991;28;20051;-74
2022/05/10 03:32:39;;;;;;;5.93;5.32;;;;;;;21.68;35.78;101531.06;5056880;28;20051;-74
2022/05/10 03:35:06;;;;;;;5.88;5.28;;;;;;;21.65;35.85;101525.88;5056841;28;20512;-75
2022/05/10 03:37:34;;;;;;;7.15;5.00;;;;;;;21.63;36.03;101533.44;5054210;28;20043;-75
2022/05/10 03:40:00;;;;;;;5.82;5.07;;;;;;;21.60;36.02;101531.00;5055700;28;20098;-74
2022/05/10 03:42:32;;;;;;;6.10;5.13;;;;;;;21.57;36.02;101531.31;5059117;28;20040;-75
2022/05/10 03:44:59;;;;;;;6.38;5.43;;;;;;;21.55;36.45;101525.94;5061151;28;20121;-75
2022/05/10 03:47:27;;;;;;;6.97;5.47;;;;;;;21.54;36.48;101521.44;5061531;28;20052;-75
2022/05/10 03:49:55;;;;;;;6.00;4.60;;;;;;;21.52;36.51;101523.50;5070858;28;20051;-75
2022/05/10 03:52:22;;;;;;;6.15;5.05;;;;;;;21.51;36.26;101526.41;5063346;28;20498;-75
2022/05/10 03:54:48;;;;;;;6.40;5.25;;;;;;;21.49;36.23;101520.19;5063611;28;20053;-75
2022/05/10 03:57:15;;;;;;;6.07;5.38;;;;;;;21.47;36.36;101514.81;5071438;28;20040;-76
2022/05/10 03:59:41;;;;;;;6.28;4.70;;;;;;;21.46;36.11;101521.38;5063947;28;20052;-75
2022/05/10 04:02:14;;;;;;;6.57;4.88;;;;;;;21.49;36.74;101520.19;5063036;28;20058;-75
2022/05/10 04:04:40;;;;;;;7.78;5.10;;;;;;;21.40;36.22;101513.72;5059395;28;20128;-75
2022/05/10 04:07:08;;;;;;;6.65;5.63;;;;;;;21.41;36.69;101511.81;5054278;28;20051;-74
2022/05/10 04:09:35;;;;;;;7.07;4.97;;;;;;;21.40;36.23;101512.84;5058888;28;20048;-75
2022/05/10 04:12:03;;;;;;;6.68;4.85;;;;;;;21.39;36.35;101513.88;5064887;28;20553;-75
2022/05/10 04:14:29;;;;;;;6.38;4.90;;;;;;;21.39;36.51;101524.91;5062312;28;20512;-75
2022/05/10 04:16:56;;;;;;;6.10;5.00;;;;;;;21.38;36.18;101523.16;5059218;28;20106;-73
2022/05/10 04:19:24;;;;;;;6.53;5.00;;;;;;;21.38;36.66;101523.16;5058845;28;20040;-74
2022/05/10 04:21:51;;;;;;;5.93;4.82;;;;;;;21.38;36.25;101521.28;5057209;28;20612;-75
2022/05/10 04:24:17;;;;;;;5.50;4.43;;;;;;;21.38;36.65;101518.50;5057745;28;20047;-75
2022/05/10 04:26:44;;;;;;;5.65;4.75;;;;;;;21.39;36.33;101525.78;5058318;28;20056;-75
2022/05/10 04:29:11;;;;;;;6.15;4.90;;;;;;;21.39;36.65;101523.03;5068615;28;20043;-74
2022/05/10 04:31:38;;;;;;;5.50;4.75;;;;;;;21.41;36.44;101525.63;5057969;28;20056;-75
2022/05/10 04:34:04;;;;;;;5.78;4.90;;;;;;;;;;5059421;28;20379;-73
2022/05/10 04:36:31;;;;;;;6.43;4.90;;;;;;;;;;5062018;28;20041;-75
2022/05/10 04:38:58;;;;;;;6.30;5.35;;;;;;;21.42;36.73;101522.69;5057179;28;20041;-75
2022/05/10 04:41:31;;;;;;;6.82;5.65;;;;;;;21.46;37.10;101526.03;5052037;28;20048;-76
2022/05/10 04:44:08;;;;;;;;;;;;;;;21.15;37.16;101518.06;5066321;28;20052;-74
2022/05/10 04:46:37;;;;;;;6.55;5.15;;;;;;;21.38;36.33;101518.50;5060753;28;19990;-73
2022/05/10 04:49:07;;;;;;;5.95;5.35;;;;;;;21.42;36.74;101517.16;5087177;28;20052;-73
2022/05/10 04:51:34;;;;;;;6.20;5.18;;;;;;;21.39;36.33;101514.72;5056446;28;20111;-75
2022/05/10 04:54:01;;;;;;;7.22;5.32;;;;;;;21.38;36.22;101521.28;5057996;28;20083;-74
2022/05/10 04:56:28;;;;;;;5.90;5.18;;;;;;;21.38;36.77;101523.16;5053402;28;20060;-73
2022/05/10 04:58:54;;;;;;;6.07;5.47;;;;;;;21.38;36.66;101525.94;5043503;28;20048;-73
2022/05/10 05:01:26;;;;;;;8.13;6.13;;;;;;;21.38;36.53;101521.28;5057464;28;20052;-73
2022/05/10 05:03:59;;;;;;;6.93;6.10;;;;;;;21.37;36.41;101521.44;5056211;28;20047;-73
2022/05/10 05:06:27;;;;;;;7.13;6.22;;;;;;;21.38;36.88;101529.56;5054549;28;20049;-73
2022/05/10 05:08:54;;;;;;;7.32;6.00;;;;;;;21.38;36.36;101524.03;5043310;28;20095;-73
2022/05/10 05:11:20;;;;;;;8.90;6.45;;;;;;;21.38;36.55;101525.94;5069548;28;20052;-73
2022/05/10 05:13:47;;;;;;;8.70;6.50;;;;;;;21.39;36.89;101530.44;5084396;28;20084;-73
2022/05/10 05:16:14;;;;;;;7.47;6.43;;;;;;;21.38;36.76;101532.31;5058540;28;20098;-73
2022/05/10 05:18:41;;;;;;;7.70;6.38;;;;;;;21.39;37.01;101534.06;5058169;28;20444;-75
2022/05/10 05:21:08;;;;;;;6.88;5.90;;;;;;;21.42;36.62;101533.75;5053602;28;20052;-75
2022/05/10 05:23:35;;;;;;;9.65;6.53;;;;;;;21.43;36.65;101540.13;5057045;28;20047;-73
2022/05/10 05:26:02;;;;;;;6.70;6.00;;;;;;;21.47;37.11;101536.91;5058736;28;20041;-73
2022/05/10 05:28:29;;;;;;;7.50;5.90;;;;;;;21.49;37.17;101534.00;5060676;28;20044;-73
2022/05/10 05:30:57;;;;;;;7.88;5.63;;;;;;;21.54;36.88;101534.38;5054790;28;20406;-73
2022/05/10 05:33:24;;;;;;;7.20;5.47;;;;;;;21.58;37.30;101538.56;5042585;28;20047;-72
2022/05/10 05:35:51;;;;;;;8.57;5.63;;;;;;;21.64;36.83;101547.13;5044618;28;20425;-72
2022/05/10 05:38:17;;;;;;;8.18;5.25;;;;;;;21.68;37.19;101539.38;5059540;28;20586;-75
2022/05/10 05:40:44;;;;;;;6.20;5.22;;;;;;;21.73;36.83;101539.78;5045961;28;20049;-76
2022/05/10 05:43:19;;;;;;;6.50;5.80;;;;;;;21.82;37.25;101541.59;5064944;28;20501;-75
2022/05/10 05:45:48;;;;;;;7.03;5.40;;;;;;;21.84;36.74;101542.28;5062603;28;20048;-72
2022/05/10 05:48:16;;;;;;;6.63;5.90;;;;;;;21.86;37.06;101537.47;5051937;28;20657;-74
2022/05/10 05:51:08;;;;;;;5.95;5.00;;;;;;;21.88;36.68;101531.78;5049076;28;20048;-74
2022/05/10 05:53:34;;;;;;;6.88;5.30;;;;;;;21.93;36.59;101537.69;4973699;28;20108;-73
2022/05/10 05:56:08;;;;;;;7.20;5.38;;;;;;;22.01;36.64;101540.56;4973573;28;20054;-73
2022/05/10 05:58:37;;;;;;;5.97;4.72;;;;;;;22.04;36.57;101533.84;4972560;28;20057;-74
2022/05/10 06:01:11;;;;;;;6.20;5.18;;;;;;;22.13;36.82;101539.28;4973112;28;20459;-74
2022/05/10 06:03:38;;;;;;;5.65;5.03;;;;;;;22.14;36.83;101537.41;4972497;28;20069;-73
2022/05/10 06:06:05;;;;;;;6.25;5.13;;;;;;;22.21;36.69;101542.13;4973037;28;20452;-75
2022/05/10 06:08:31;;;;;;;8.27;5.18;;;;;;;22.29;36.70;101536.66;4972662;28;20115;-73
2022/05/10 06:10:58;;;;;;;6.85;4.80;;;;;;;22.37;36.89;101533.06;4974483;28;20185;-74
2022/05/10 06:13:25;;;;;;;6.68;4.97;;;;;;;22.45;36.46;101529.47;4972691;28;20042;-74
2022/05/10 06:15:51;;;;;;;7.30;5.18;;;;;;;22.54;36.28;101531.28;4988566;28;20054;-74
2022/05/10 06:18:18;;;;;;;6.93;4.95;;;;;;;22.63;36.33;101522.84;4988354;28;20159;-74
2022/05/10 06:20:45;;;;;;;6.18;5.05;;;;;;;22.74;35.84;101527.25;4977552;28;20054;-74
2022/05/10 06:23:12;;;;;;;5.80;4.90;;;;;;;22.83;35.81;101533.69;4971598;28;20097;-74
2022/05/10 06:25:38;;;;;;;5.70;4.80;;;;;;;22.91;35.35;101529.06;4971560;28;20101;-74
2022/05/10 06:28:05;;;;;;;7.15;4.72;;;;;;;22.98;35.31;101523.72;4983708;28;20049;-74
2022/05/10 06:30:32;;;;;;;6.38;5.10;;;;;;;23.05;35.26;101527.59;4999033;28;20044;-73
2022/05/10 06:32:59;;;;;;;6.97;4.63;;;;;;;23.12;35.36;101525.88;5051443;28;20524;-72
2022/05/10 06:35:27;;;;;;;6.63;4.43;;;;;;;23.18;34.95;101518.78;5055544;28;20494;-74
2022/05/10 06:40:41;;;;;;;6.07;4.72;;;;;;;23.24;34.96;101515.34;5067186;28;20122;-75
2022/05/10 06:43:08;;;;;;;6.18;4.43;;;;;;;23.29;35.09;101516.59;5067182;28;20048;-74
2022/05/10 06:45:35;;;;;;;6.68;4.53;;;;;;;23.33;35.15;101509.66;5054773;28;20048;-73
2022/05/10 06:48:01;;;;;;;5.97;4.82;;;;;;;23.40;34.90;101512.59;5052509;28;20099;-75
2022/05/10 06:50:28;;;;;;;7.22;4.80;;;;;;;23.45;35.06;101504.66;5055608;28;20049;-74
2022/05/10 06:52:57;;;;;;;7.15;4.55;;;;;;;23.54;35.19;101512.00;5052419;28;20048;-75
2022/05/10 06:55:26;;;;;;;6.20;4.50;;;;;;;23.62;34.75;101505.59;5053586;28;20078;-75
2022/05/10 06:57:53;;;;;;;8.50;4.85;;;;;;;23.71;34.77;101501.78;5045293;28;20509;-74
2022/05/10 07:00:20;;;;;;;6.70;4.78;;;;;;;23.81;34.80;101499.69;5046927;28;20045;-76
2022/05/10 07:02:48;;;;;;;6.07;4.75;;;;;;;23.91;34.69;101497.63;5046353;28;20559;-76
2022/05/10 07:05:16;;;;;;;6.53;4.80;;;;;;;24.04;34.47;101508.22;5048019;28;20098;-75
2022/05/10 07:07:43;;;;;;;7.07;4.95;;;;;;;24.14;34.23;101503.31;5050948;28;20097;-75
2022/05/10 07:10:11;;;;;;;6.72;5.07;;;;;;;24.26;34.47;101496.41;5057793;28;20472;-74
2022/05/10 07:12:40;;;;;;;5.63;5.00;;;;;;;24.41;34.47;101496.56;5056834;28;20048;-75
2022/05/10 07:15:12;;;;;;;6.38;4.95;;;;;;;24.51;34.23;101487.00;5051902;28;20040;-75
2022/05/10 07:17:41;;;;;;;4.82;4.32;;;;;;;24.60;33.85;101487.84;5046727;28;20056;-74
2022/05/10 07:20:09;;;;;;;6.07;4.90;;;;;;;24.76;34.09;101481.34;5053197;28;20048;-72
2022/05/10 07:22:36;;;;;;;5.85;5.03;;;;;;;24.87;33.86;101489.31;5049416;28;20456;-74
2022/05/10 07:25:04;;;;;;;6.47;5.07;;;;;;;25.01;33.47;101485.78;5042683;28;20044;-76
2022/05/10 07:27:32;;;;;;;7.20;5.20;;;;;;;25.12;33.83;101484.53;5045294;28;20549;-75
2022/05/10 07:29:59;;;;;;;6.88;5.07;;;;;;;25.25;33.65;101484.78;5049268;28;20485;-75
2022/05/10 07:32:29;;;;;;;6.97;5.25;;;;;;;25.34;33.22;101478.13;5047719;28;20421;-75
2022/05/10 07:34:56;;;;;;;6.30;4.93;;;;;;;25.50;33.66;101485.50;5037732;28;20040;-75
2022/05/10 07:37:22;;;;;;;6.63;5.07;;;;;;;25.62;33.40;101478.47;5049702;28;20121;-75
2022/05/10 07:39:49;;;;;;;7.57;4.80;;;;;;;25.76;33.16;101475.78;5052041;28;20048;-75
2022/05/10 07:42:16;;;;;;;5.72;5.05;;;;;;;25.91;33.11;101473.03;5050650;28;20052;-75
2022/05/10 07:44:43;;;;;;;6.38;4.82;;;;;;;26.06;33.21;101476.72;5054524;28;20553;-76
2022/05/10 07:47:09;;;;;;;8.52;5.43;;;;;;;26.20;32.79;101474.13;5044799;28;20045;-75
2022/05/10 07:49:36;;;;;;;6.25;5.10;;;;;;;26.32;32.73;101467.97;5051776;28;20048;-74
2022/05/10 07:52:12;;;;;;;5.97;5.07;;;;;;;26.47;32.37;101468.84;5051082;28;20044;-75
2022/05/10 07:54:39;;;;;;;6.60;5.13;;;;;;;26.56;32.56;101465.94;5051363;28;20405;-76
2022/05/10 07:57:06;;;;;;;5.68;4.90;;;;;;;26.68;32.40;101462.50;5050965;28;20052;-76
2022/05/10 07:59:32;;;;;;;7.03;4.75;;;;;;;26.79;32.10;101463.91;5051691;28;20047;-76
2022/05/10 08:02:05;;;;;;;6.47;5.05;;;;;;;26.93;32.54;101471.44;5048115;28;20179;-76
2022/05/10 08:04:32;;;;;;;5.45;4.65;;;;;;;27.04;31.92;101465.34;5050952;28;20059;-76
2022/05/10 08:06:58;;;;;;;6.35;4.80;;;;;;;27.18;32.23;101464.44;5060450;28;21199;-74
2022/05/10 08:09:25;;;;;;;5.80;4.47;;;;;;;27.33;32.29;101464.44;5054944;28;20520;-75
2022/05/10 08:11:52;;;;;;;7.40;4.75;;;;;;;27.48;31.84;101464.38;5060240;28;20048;-76
2022/05/10 08:14:18;;;;;;;6.40;5.13;;;;;;;27.63;31.64;101463.28;5058586;28;20048;-76
2022/05/10 08:16:46;;;;;;;7.18;4.40;;;;;;;27.79;31.60;101466.84;5050443;28;20509;-75
2022/05/10 08:19:13;;;;;;;6.40;4.72;;;;;;;27.94;31.70;101470.44;5050816;28;20045;-75
2022/05/10 08:21:42;;;;;;;6.85;4.90;;;;;;;28.09;31.00;101465.63;5052989;28;20048;-75
2022/05/10 08:24:09;;;;;;;5.78;4.78;;;;;;;28.24;30.71;101452.47;5050922;28;20044;-75
2022/05/10 08:26:36;;;;;;;6.03;4.63;;;;;;;28.37;30.74;101448.91;5050239;28;20048;-74
2022/05/10 08:29:02;;;;;;;4.95;4.43;;;;;;;28.49;30.54;101452.00;5050922;28;20188;-75
2022/05/10 08:31:29;;;;;;;7.57;4.43;;;;;;;28.63;30.64;101451.00;5051007;28;20109;-74
2022/05/10 08:33:56;;;;;;;5.35;4.28;;;;;;;28.75;30.44;101443.72;5049422;28;20070;-74
2022/05/10 08:36:23;;;;;;;6.82;4.55;;;;;;;28.88;30.35;101449.44;5054239;28;20044;-74
2022/05/10 08:38:50;;;;;;;5.25;4.35;;;;;;;29.01;30.43;101443.03;5045033;28;20134;-75
2022/05/10 08:41:22;;;;;;;5.45;4.30;;;;;;;29.14;29.95;101438.38;5050844;28;20048;-74
2022/05/10 08:44:13;;;;;;;7.68;4.60;;;;;;;29.27;29.74;101448.72;5034243;28;20044;-75
2022/05/10 08:46:44;;;;;;;5.65;4.45;;;;;;;29.40;29.73;101443.19;5049952;28;20102;-75
2022/05/10 08:49:14;;;;;;;5.93;4.68;;;;;;;29.54;28.58;101449.69;5051256;28;20153;-75
2022/05/10 08:51:41;;;;;;;4.78;4.15;;;;;;;29.62;29.17;101434.63;5050155;28;20052;-74
2022/05/10 08:54:08;;;;;;;5.20;4.32;;;;;;;29.71;29.25;101439.81;5050856;28;20107;-75
2022/05/10 08:56:50;;;;;;;6.85;4.50;;;;;;;29.85;28.31;101438.72;5052664;28;20056;-74
2022/05/10 08:59:54;;;;;;;5.82;3.95;;;;;;;29.90;28.74;101433.34;5054700;28;20041;-75
2022/05/10 09:02:46;;;;;;;6.20;3.88;;;;;;;30.02;28.18;101430.78;5064000;28;20048;-75
2022/05/10 09:05:28;;;;;;;;;;;;;;;29.78;29.59;101435.06;5047148;28;20049;-74
2022/05/10 09:08:05;;;;;;;4.78;3.70;;;;;;;30.18;28.24;101426.69;5090822;28;20334;-75
2022/05/10 09:10:45;;;;;;;5.10;3.78;;;;;;;30.31;27.52;101431.41;5053325;28;20041;-75
2022/05/10 09:13:16;;;;;;;6.05;4.03;;;;;;;30.35;28.09;101425.16;5041752;28;20118;-75
2022/05/10 09:15:49;;;;;;;5.43;3.63;;;;;;;30.40;27.53;101419.75;5060515;28;20398;-75
2022/05/10 09:18:20;;;;;;;4.85;3.47;;;;;;;30.45;27.20;101427.50;5043585;28;20079;-75
2022/05/10 09:21:17;;;;;;;5.20;3.50;;;;;;;30.44;26.70;101421.03;5054396;28;20407;-75
2022/05/10 09:23:45;;;;;;;6.18;3.70;;;;;;;30.42;27.24;101417.59;5048915;28;20048;-75
2022/05/10 09:26:14;;;;;;;5.47;3.30;;;;;;;30.44;26.95;101404.22;5053006;28;20056;-74
2022/05/10 09:28:48;;;;;;;5.82;3.38;;;;;;;30.46;26.85;101401.22;5054286;28;20052;-75
2022/05/10 09:34:47;;;;;;;4.18;2.97;;;;;;;30.40;27.21;101400.13;5054119;28;20509;-75
2022/05/10 09:37:24;;;;;;;5.53;3.42;;;;;;;30.44;26.81;101397.75;5052973;28;20071;-75
2022/05/10 09:40:00;;;;;;;5.32;3.70;;;;;;;30.44;26.83;101398.63;5054372;28;20056;-74
2022/05/10 09:42:39;;;;;;;4.97;3.50;;;;;;;30.45;26.79;101391.06;5051511;28;20051;-75
2022/05/10 09:45:24;;;;;;;5.80;3.75;;;;;;;30.45;26.83;101389.13;5059608;28;20098;-76
2022/05/10 09:48:02;;;;;;;4.70;3.50;;;;;;;30.47;26.68;101388.91;5046320;28;20318;-75
2022/05/10 09:50:46;;;;;;;4.13;3.65;;;;;;;30.49;26.82;101387.59;5053602;28;20069;-75
2022/05/10 09:53:30;;;;;;;5.28;3.60;;;;;;;30.50;26.54;101380.06;5045922;28;20102;-75
2022/05/10 09:56:23;;;;;;;4.95;3.20;;;;;;;30.55;26.87;101386.78;5044820;28;20057;-76
2022/05/10 09:58:57;;;;;;;5.15;3.50;;;;;;;30.59;25.74;101392.78;5051788;28;20056;-74
2022/05/10 10:01:44;;;;;;;5.22;3.40;;;;;;;30.60;25.94;101386.97;5083738;28;20737;-75
2022/05/10 10:04:22;;;;;;;5.07;3.30;;;;;;;30.66;26.01;101381.53;5047355;28;20048;-74
2022/05/10 10:07:24;;;;;;;5.07;3.33;;;;;;;30.64;26.35;101378.94;5053045;28;20076;-75
2022/05/10 10:10:11;;;;;;;4.65;3.22;;;;;;;30.71;25.86;101377.00;5030643;28;20280;-75
2022/05/10 10:12:41;;;;;;;4.72;3.20;;;;;;;30.75;25.70;101383.88;5035340;28;20083;-74
2022/05/10 10:15:23;;;;;;;3.22;2.60;;;;;;;30.77;24.71;101372.44;5056858;28;20048;-74
2022/05/10 10:17:53;;;;;;;3.90;2.40;;;;;;;30.77;24.65;101370.50;5045359;28;20486;-75
2022/05/10 10:20:32;;;;;;;3.58;2.70;;;;;;;30.80;24.15;101360.78;5052922;28;20539;-76
2022/05/10 10:23:03;;;;;;;4.38;2.80;;;;;;;30.81;24.16;101374.56;5045994;28;20048;-76
2022/05/10 10:25:37;;;;;;;3.90;2.60;;;;;;;30.84;23.81;101367.66;5051494;28;20072;-76
2022/05/10 10:28:39;;;;;;;4.00;2.63;;;;;;;30.83;23.77;101364.00;5051621;28;20091;-76
2022/05/10 10:31:14;;;;;;;3.90;2.75;;;;;;;30.81;23.49;101360.53;5041529;28;20466;-76
2022/05/10 10:33:47;;;;;;;3.75;2.58;;;;;;;30.85;23.64;101360.97;5052526;28;20525;-75
2022/05/10 10:36:25;;;;;;;3.42;2.53;;;;;;;30.84;23.40;101354.50;5051982;28;20102;-76
2022/05/10 10:39:01;;;;;;;3.75;2.60;;;;;;;30.85;23.06;101356.22;5061106;28;20440;-76
2022/05/10 10:42:10;;;;;;;3.60;2.50;;;;;;;30.80;23.21;101349.56;5056622;28;20094;-75
2022/05/10 10:44:46;;;;;;;3.95;2.88;;;;;;;30.81;22.82;101346.53;5053941;28;20147;-74
2022/05/10 10:47:29;;;;;;;3.40;2.63;;;;;;;30.80;23.32;101343.97;5058774;28;20532;-76
2022/05/10 10:50:01;;;;;;;3.20;2.45;;;;;;;30.80;22.97;101343.97;5048857;28;20078;-76
2022/05/10 10:52:31;;;;;;;3.90;2.90;;;;;;;30.77;23.46;101350.00;5051373;28;20494;-76
2022/05/10 10:54:59;;;;;;;4.38;2.72;;;;;;;30.78;23.10;101340.53;5058824;28;20118;-76
2022/05/10 10:57:32;;;;;;;3.88;2.80;;;;;;;30.80;22.56;101332.75;5050988;28;20110;-76
2022/05/10 11:00:08;;;;;;;3.65;2.50;;;;;;;30.79;22.85;101331.91;5051445;28;20090;-76
2022/05/10 11:03:00;;;;;;;3.40;2.58;;;;;;;30.78;22.68;101321.75;5057902;28;20049;-76
2022/05/10 11:05:51;;;;;;;4.18;2.50;;;;;;;30.77;22.63;101319.16;5057781;28;20529;-74
2022/05/10 11:08:41;;;;;;;4.38;2.60;;;;;;;30.78;22.59;101313.34;5038390;28;20045;-76
2022/05/10 11:11:19;;;;;;;3.58;2.50;;;;;;;30.75;22.33;101313.78;5049081;28;20051;-76
2022/05/10 11:14:13;;;;;;;3.92;2.60;;;;;;;30.78;22.13;101312.47;5054783;28;20048;-75
2022/05/10 11:17:02;;;;;;;4.38;2.53;;;;;;;30.74;21.85;101305.59;5051179;28;20045;-76
2022/05/10 11:19:50;;;;;;;3.78;2.45;;;;;;;30.76;21.29;101309.03;5068603;28;20052;-76
2022/05/10 11:22:49;;;;;;;3.95;2.40;;;;;;;30.72;21.69;101296.56;5047565;28;20086;-75
2022/05/10 11:25:47;;;;;;;3.80;2.25;;;;;;;30.68;21.76;101304.56;5051691;28;20045;-74
2022/05/10 11:28:32;;;;;;;3.42;2.53;;;;;;;30.66;21.82;101317.91;5050638;28;20091;-76
2022/05/10 11:31:01;;;;;;;5.22;2.83;;;;;;;30.61;22.06;101307.41;5055635;28;20048;-74
2022/05/10 11:33:47;;;;;;;3.65;2.30;;;;;;;30.61;22.10;101309.34;5062629;28;20049;-76
2022/05/10 11:36:32;;;;;;;3.80;2.72;;;;;;;30.62;21.93;101314.72;5050847;28;20075;-76
2022/05/10 11:39:36;;;;;;;3.33;2.63;;;;;;;30.61;21.93;101307.41;5043013;28;20067;-76
2022/05/10 11:42:37;;;;;;;4.07;2.60;;;;;;;30.59;21.64;101311.50;5038220;28;20048;-76
2022/05/10 11:45:23;;;;;;;4.47;2.80;;;;;;;30.58;21.83;101299.41;5056233;28;20125;-76
2022/05/10 11:48:09;;;;;;;3.40;2.40;;;;;;;30.58;22.13;101290.16;5046715;28;20070;-75
2022/05/10 11:54:04;;;;;;;4.60;2.83;;;;;;;30.62;22.20;101294.25;5068715;28;20056;-74
2022/05/10 11:56:39;;;;;;;4.95;3.10;;;;;;;30.68;22.16;101292.47;5065035;28;20048;-75
2022/05/10 11:59:13;;;;;;;3.63;2.53;;;;;;;30.72;21.90;101293.75;5052149;28;20333;-74
2022/05/10 12:01:43;;;;;;;4.05;2.70;;;;;;;30.75;22.21;101282.94;5051559;28;20118;-75
2022/05/10 12:04:28;;;;;;;4.25;2.78;;;;;;;30.84;21.80;101283.53;5047785;28;20128;-74
2022/05/10 12:07:15;;;;;;;4.82;2.90;;;;;;;30.88;22.00;101276.41;5047492;28;20044;-75